Carmel Highlands, California
Current Conditions -  °F | °C
As of 7:54 PM on Tuesday 21 Oct 2014 (Local Time) from KMRY Reporting Station
Clear Clear  
Wind Chill: 62°   Ceiling: Unl
Heat Index: 62°   Visibility: 10mi
Dew Point: 51°   Wind: 3mph
Humidity: 67%   Direction: 130°SE
Pressure: 30.03"   Gusts: NA
Location:  36.5057°N, 121.854°W
Report Text: KMRY 220254Z 13003KT 10SM CLR 17/11 A3003 RMK AO2 SLP182 T01670106 53001
Loading
Personal Weather Stations






























Interactive Weather Map
Tropical Storm Tracking
New forecast layout! Learn more

10-Day Weather Forecast

Advertisements
Track Severe Weather on mobile